Time;durP1;ratioP1;P1;durP2;ratioP2;P2;SDS_P1;SDS_P2;PMS_P1;PMS_P2;Temp;Humidity;BMP_temperature;BMP_pressure;BME280_temperature;BME280_humidity;BME280_pressure;Samples;Min_cycle;Max_cycle;Signal;HPM_P1;HPM_P2
2022/08/14 00:01:55;;;;;;;;;;;21.90;60.60;;;;;;5005396;28;19929;-91
2022/08/14 00:04:22;;;;;;;;;;;21.90;60.70;;;;;;5008354;28;19910;-93
2022/08/14 00:06:51;;;;;;;;;;;21.80;60.70;;;;;;4988830;28;19934;-92
2022/08/14 00:09:18;;;;;;;;;;;21.80;61.50;;;;;;5006586;28;19933;-92
2022/08/14 00:11:45;;;;;;;;;;;21.80;60.80;;;;;;4990403;28;19954;-92
2022/08/14 00:14:12;;;;;;;;;;;21.70;60.90;;;;;;4990435;28;19949;-91
2022/08/14 00:16:39;;;;;;;;;;;21.70;60.90;;;;;;5008718;28;19910;-92
2022/08/14 00:19:06;;;;;;;;;;;21.70;61.00;;;;;;5009629;28;19925;-91
2022/08/14 00:21:33;;;;;;;;;;;21.60;60.90;;;;;;5005919;28;19924;-92
2022/08/14 00:24:03;;;;;;;;;;;21.60;60.90;;;;;;4988296;28;20436;-92
2022/08/14 00:26:30;;;;;;;;;;;21.60;61.00;;;;;;4989693;28;19915;-91
2022/08/14 00:28:57;;;;;;;;;;;21.50;61.10;;;;;;4989699;28;19941;-92
2022/08/14 00:31:24;;;;;;;;;;;21.60;61.30;;;;;;4991146;28;19926;-90
2022/08/14 00:33:51;;;;;;;;;;;21.50;61.10;;;;;;5002699;28;19957;-91
2022/08/14 00:36:18;;;;;;;;;;;21.50;61.30;;;;;;4989574;28;19926;-91
2022/08/14 00:38:45;;;;;;;;;;;21.50;61.40;;;;;;5006865;28;19934;-91
2022/08/14 00:41:14;;;;;;;;;;;21.40;61.30;;;;;;5001721;28;20598;-91
2022/08/14 00:43:41;;;;;;;;;;;21.40;61.30;;;;;;5008403;28;19930;-90
2022/08/14 00:46:10;;;;;;;;;;;21.40;61.50;;;;;;4995259;28;20032;-91
2022/08/14 00:48:38;;;;;;;;;;;21.40;61.60;;;;;;4993286;28;19957;-91
2022/08/14 00:51:08;;;;;;;;;;;21.30;61.60;;;;;;4987151;28;19957;-92
2022/08/14 00:53:36;;;;;;;;;;;21.30;61.70;;;;;;4997142;28;19989;-91
2022/08/14 00:56:04;;;;;;;;;;;21.30;61.70;;;;;;4993908;28;19934;-92
2022/08/14 00:58:33;;;;;;;;;;;21.30;61.70;;;;;;5009129;28;19993;-92
2022/08/14 01:01:06;;;;;;;;;;;21.20;61.70;;;;;;4993855;28;19925;-92
2022/08/14 01:03:38;;;;;;;;;;;21.20;61.70;;;;;;5008506;28;19972;-92
2022/08/14 01:06:08;;;;;;;;;;;21.20;61.70;;;;;;5005128;28;19941;-91
2022/08/14 01:08:37;;;;;;;;;;;21.20;61.80;;;;;;5006339;28;19932;-91
2022/08/14 01:11:07;;;;;;;;;;;21.10;61.90;;;;;;5005615;28;19934;-93
2022/08/14 01:13:38;;;;;;;;;;;21.10;62.00;;;;;;4999104;28;19914;-93
2022/08/14 01:16:07;;;;;;;;;;;21.10;62.00;;;;;;5000295;28;19933;-92
2022/08/14 01:25:37;;;;;;;;;;;20.90;61.80;;;;;;5013214;28;20308;-92
2022/08/14 01:28:06;;;;;;;;;;;20.90;61.90;;;;;;5011606;28;20384;-92
2022/08/14 01:30:37;;;;;;;;;;;20.90;61.90;;;;;;4999918;28;19926;-92
2022/08/14 01:33:06;;;;;;;;;;;20.90;61.90;;;;;;5009092;28;19926;-91
2022/08/14 01:35:45;;;;;;;;;;;20.90;61.80;;;;;;4994524;28;19926;-92
2022/08/14 01:38:14;;;;;;;;;;;20.80;61.80;;;;;;4996029;28;19926;-92
2022/08/14 01:40:47;;;;;;;;;;;20.80;62.00;;;;;;5005967;28;20219;-93
2022/08/14 01:57:15;;;;;;;;;;;20.60;62.10;;;;;;4994942;23;19971;-78
2022/08/14 01:59:43;;;;;;;;;;;20.60;62.40;;;;;;4987051;28;19933;-79
2022/08/14 02:02:13;;;;;;;;;;;20.50;62.20;;;;;;4981275;28;20404;-78
2022/08/14 02:04:40;;;;;;;;;;;20.50;62.30;;;;;;4981355;28;20017;-78
2022/08/14 02:07:08;;;;;;;;;;;20.50;62.30;;;;;;4982158;28;20126;-78
2022/08/14 02:09:37;;;;;;;;;;;20.50;62.40;;;;;;4976901;28;19926;-78
2022/08/14 02:12:06;;;;;;;;;;;20.40;62.40;;;;;;4980779;28;19945;-78
2022/08/14 02:14:34;;;;;;;;;;;20.40;62.60;;;;;;4981398;28;20024;-78
2022/08/14 02:17:02;;;;;;;;;;;20.30;62.50;;;;;;4962621;28;19941;-79
2022/08/14 02:19:29;;;;;;;;;;;20.30;62.70;;;;;;4981090;28;20419;-78
2022/08/14 02:21:57;;;;;;;;;;;20.30;62.80;;;;;;4967245;28;19936;-79
2022/08/14 02:24:27;;;;;;;;;;;20.20;62.80;;;;;;4984678;28;20013;-78
2022/08/14 02:26:57;;;;;;;;;;;20.20;62.80;;;;;;4979823;28;19930;-79
2022/08/14 02:29:24;;;;;;;;;;;20.20;62.90;;;;;;4959563;28;19933;-78
2022/08/14 02:31:54;;;;;;;;;;;20.10;62.80;;;;;;4981224;28;19926;-78
2022/08/14 02:34:21;;;;;;;;;;;20.10;62.90;;;;;;4980446;28;19992;-78
2022/08/14 02:36:50;;;;;;;;;;;20.00;63.00;;;;;;4987994;28;19988;-78
2022/08/14 02:39:17;;;;;;;;;;;19.90;63.80;;;;;;4981949;28;19934;-78
2022/08/14 02:41:44;;;;;;;;;;;19.80;63.50;;;;;;4975513;28;20762;-80
2022/08/14 02:44:11;;;;;;;;;;;19.80;63.50;;;;;;4980293;28;19940;-78
2022/08/14 02:46:43;;;;;;;;;;;19.80;63.40;;;;;;4986933;28;19929;-78
2022/08/14 02:49:11;;;;;;;;;;;19.80;63.20;;;;;;4978669;28;19934;-80
2022/08/14 02:51:38;;;;;;;;;;;19.70;63.30;;;;;;4966265;28;19981;-80
2022/08/14 02:54:06;;;;;;;;;;;19.70;63.70;;;;;;4980013;28;19980;-79
2022/08/14 02:56:34;;;;;;;;;;;19.60;63.70;;;;;;4977944;28;19925;-78
2022/08/14 02:59:01;;;;;;;;;;;19.60;63.70;;;;;;4980438;28;19925;-79
2022/08/14 03:01:28;;;;;;;;;;;19.50;63.70;;;;;;4979895;28;20389;-78
2022/08/14 03:03:55;;;;;;;;;;;19.50;63.80;;;;;;4984104;28;19932;-79
2022/08/14 03:06:23;;;;;;;;;;;19.40;63.90;;;;;;4981299;28;19925;-78
2022/08/14 03:08:51;;;;;;;;;;;19.40;64.00;;;;;;4978511;28;19926;-79
2022/08/14 03:11:18;;;;;;;;;;;19.30;64.00;;;;;;4983187;28;20008;-78
2022/08/14 03:13:47;;;;;;;;;;;19.30;64.10;;;;;;4980523;28;19929;-78
2022/08/14 03:16:14;;;;;;;;;;;19.20;63.40;;;;;;4985561;28;20020;-78
2022/08/14 03:18:42;;;;;;;;;;;19.10;64.60;;;;;;4963316;28;19936;-78
2022/08/14 03:21:10;;;;;;;;;;;19.10;64.60;;;;;;4984951;28;20012;-78
2022/08/14 03:23:38;;;;;;;;;;;19.00;64.40;;;;;;4981624;28;20286;-78
2022/08/14 03:26:07;;;;;;;;;;;19.00;64.70;;;;;;4980737;28;19926;-78
2022/08/14 03:28:34;;;;;;;;;;;18.90;64.70;;;;;;4981482;28;20388;-78
2022/08/14 03:31:00;;;;;;;;;;;18.90;64.70;;;;;;4979808;28;20376;-78
2022/08/14 03:33:28;;;;;;;;;;;18.90;64.60;;;;;;4984409;28;19976;-78
2022/08/14 03:35:58;;;;;;;;;;;18.90;64.60;;;;;;4982831;28;20333;-79
2022/08/14 03:38:25;;;;;;;;;;;18.90;64.70;;;;;;4979200;28;19989;-78
2022/08/14 03:40:53;;;;;;;;;;;18.80;64.40;;;;;;4984156;28;20464;-80
2022/08/14 03:43:20;;;;;;;;;;;18.80;64.10;;;;;;4982153;28;19926;-78
2022/08/14 03:45:47;;;;;;;;;;;18.90;64.20;;;;;;4984270;28;19930;-78
2022/08/14 03:48:18;;;;;;;;;;;18.90;64.00;;;;;;4977533;28;20400;-78
2022/08/14 03:50:45;;;;;;;;;;;18.90;63.90;;;;;;4981424;28;19930;-79
2022/08/14 03:53:12;;;;;;;;;;;18.90;63.70;;;;;;4962054;28;20068;-79
2022/08/14 03:55:39;;;;;;;;;;;18.90;63.90;;;;;;4982870;28;19930;-78
2022/08/14 03:58:08;;;;;;;;;;;18.90;63.80;;;;;;4982787;28;19972;-78
2022/08/14 04:00:35;;;;;;;;;;;18.90;63.90;;;;;;4976167;28;19930;-78
2022/08/14 04:03:03;;;;;;;;;;;18.80;63.80;;;;;;4979565;28;19968;-78
2022/08/14 04:05:30;;;;;;;;;;;18.90;63.90;;;;;;4984039;28;20008;-79
2022/08/14 04:07:57;;;;;;;;;;;18.80;63.80;;;;;;4982289;28;19930;-78
2022/08/14 04:10:24;;;;;;;;;;;18.80;63.80;;;;;;4965465;28;20016;-78
2022/08/14 04:12:50;;;;;;;;;;;18.80;63.90;;;;;;4982195;28;19969;-78
2022/08/14 04:15:20;;;;;;;;;;;18.70;63.90;;;;;;4965950;28;20208;-80
2022/08/14 04:17:47;;;;;;;;;;;18.70;63.90;;;;;;4983285;28;19934;-78
2022/08/14 04:20:16;;;;;;;;;;;18.70;63.90;;;;;;4977358;28;19930;-78
2022/08/14 04:22:44;;;;;;;;;;;18.70;63.90;;;;;;4982768;28;19933;-79
2022/08/14 04:25:11;;;;;;;;;;;18.70;64.10;;;;;;4979049;28;20023;-78
2022/08/14 04:27:39;;;;;;;;;;;18.70;64.10;;;;;;4983404;28;19925;-79
2022/08/14 04:30:06;;;;;;;;;;;18.60;64.00;;;;;;4981458;28;19976;-79
2022/08/14 04:32:34;;;;;;;;;;;18.60;64.10;;;;;;4984365;28;19926;-78
2022/08/14 04:35:01;;;;;;;;;;;18.60;64.10;;;;;;4978169;28;20358;-78
2022/08/14 04:45:41;;;;;;;;;;;18.50;64.30;;;;;;4978389;28;19922;-78
2022/08/14 04:48:12;;;;;;;;;;;18.40;64.20;;;;;;4977182;28;19957;-78
2022/08/14 04:50:39;;;;;;;;;;;18.40;64.20;;;;;;4984788;28;19932;-78
2022/08/14 04:53:06;;;;;;;;;;;18.30;64.40;;;;;;4975936;28;19930;-79
2022/08/14 04:55:33;;;;;;;;;;;18.20;64.70;;;;;;4977381;28;20040;-78
2022/08/14 04:58:01;;;;;;;;;;;18.10;64.70;;;;;;4964138;28;19933;-79
2022/08/14 05:00:28;;;;;;;;;;;18.10;64.70;;;;;;4985783;28;20178;-78
2022/08/14 05:02:55;;;;;;;;;;;18.00;64.80;;;;;;4961970;28;20008;-79
2022/08/14 05:05:24;;;;;;;;;;;18.00;64.90;;;;;;4978529;28;19926;-78
2022/08/14 05:07:51;;;;;;;;;;;18.00;64.90;;;;;;4980167;28;19934;-78
2022/08/14 05:10:22;;;;;;;;;;;17.90;65.00;;;;;;4974431;28;19981;-78
2022/08/14 05:12:51;;;;;;;;;;;17.80;65.10;;;;;;4968492;28;20304;-78
2022/08/14 05:15:18;;;;;;;;;;;17.80;65.30;;;;;;4981246;28;19974;-78
2022/08/14 05:17:45;;;;;;;;;;;17.70;65.40;;;;;;4962534;28;20410;-78
2022/08/14 05:20:12;;;;;;;;;;;17.70;65.60;;;;;;4961532;28;20012;-79
2022/08/14 05:22:40;;;;;;;;;;;17.70;65.70;;;;;;4980225;28;19965;-78
2022/08/14 05:25:07;;;;;;;;;;;17.60;65.70;;;;;;4974181;28;20379;-79
2022/08/14 05:27:35;;;;;;;;;;;17.60;65.90;;;;;;4977824;28;20028;-79
2022/08/14 05:30:04;;;;;;;;;;;17.60;65.90;;;;;;4964512;28;20349;-78
2022/08/14 05:32:31;;;;;;;;;;;17.60;66.10;;;;;;4974929;28;19934;-78
2022/08/14 05:34:58;;;;;;;;;;;17.60;66.40;;;;;;4972838;28;20381;-78
2022/08/14 05:37:26;;;;;;;;;;;17.50;66.30;;;;;;4977503;28;20459;-78
2022/08/14 05:39:55;;;;;;;;;;;17.50;66.60;;;;;;4971460;28;19939;-78
2022/08/14 05:42:21;;;;;;;;;;;17.50;67.60;;;;;;4976932;28;19930;-80
2022/08/14 05:44:48;;;;;;;;;;;17.50;68.00;;;;;;4977118;28;19938;-79
2022/08/14 05:47:15;;;;;;;;;;;17.50;68.10;;;;;;4974538;28;19937;-78
2022/08/14 05:49:42;;;;;;;;;;;17.50;67.50;;;;;;4978932;28;19953;-79
2022/08/14 05:52:09;;;;;;;;;;;17.50;67.50;;;;;;4962750;28;19977;-78
2022/08/14 05:54:36;;;;;;;;;;;17.50;67.80;;;;;;4960127;28;19989;-79
2022/08/14 05:57:04;;;;;;;;;;;17.50;68.10;;;;;;4979284;28;20100;-79
2022/08/14 05:59:31;;;;;;;;;;;17.50;69.20;;;;;;4983090;28;20057;-78
2022/08/14 06:01:58;;;;;;;;;;;17.60;68.70;;;;;;4968842;28;19980;-79
2022/08/14 06:04:24;;;;;;;;;;;17.60;68.80;;;;;;4984394;28;19930;-78
2022/08/14 06:06:51;;;;;;;;;;;17.70;69.00;;;;;;4980830;28;19934;-78
2022/08/14 06:09:19;;;;;;;;;;;17.70;68.90;;;;;;4986489;28;20316;-78
2022/08/14 06:11:45;;;;;;;;;;;17.80;68.90;;;;;;4965475;28;19926;-78
2022/08/14 06:14:14;;;;;;;;;;;17.70;68.80;;;;;;4983318;28;19940;-78
2022/08/14 06:16:43;;;;;;;;;;;17.80;69.00;;;;;;4988216;28;20009;-79
2022/08/14 06:19:10;;;;;;;;;;;17.80;69.10;;;;;;4964922;28;19932;-78
2022/08/14 06:21:37;;;;;;;;;;;17.90;69.30;;;;;;4981512;28;19930;-79
2022/08/14 06:24:04;;;;;;;;;;;17.90;69.30;;;;;;4980645;28;19953;-78
2022/08/14 06:26:31;;;;;;;;;;;17.90;69.20;;;;;;4964062;28;19961;-79
2022/08/14 06:29:01;;;;;;;;;;;17.90;69.30;;;;;;4979299;28;19926;-78
2022/08/14 06:31:29;;;;;;;;;;;18.00;69.40;;;;;;4969517;28;19973;-78
2022/08/14 06:33:56;;;;;;;;;;;18.00;69.40;;;;;;4980730;28;19960;-78
2022/08/14 06:36:23;;;;;;;;;;;18.00;69.30;;;;;;4976636;28;19926;-79
2022/08/14 06:38:51;;;;;;;;;;;18.10;69.50;;;;;;4985456;28;19933;-78
2022/08/14 06:41:18;;;;;;;;;;;18.10;69.60;;;;;;4982839;28;19934;-78
2022/08/14 06:43:45;;;;;;;;;;;18.10;69.70;;;;;;4983233;28;19926;-78
2022/08/14 06:46:11;;;;;;;;;;;18.10;69.70;;;;;;4964706;28;19933;-78
2022/08/14 06:48:40;;;;;;;;;;;18.20;69.70;;;;;;4980430;28;19940;-78
2022/08/14 06:51:06;;;;;;;;;;;18.20;69.70;;;;;;4975907;28;19977;-79
2022/08/14 06:53:33;;;;;;;;;;;18.20;69.70;;;;;;4975003;28;19926;-78
2022/08/14 06:56:00;;;;;;;;;;;18.20;69.60;;;;;;4984568;28;20393;-80
2022/08/14 06:58:27;;;;;;;;;;;18.20;69.60;;;;;;4969790;28;19948;-78
2022/08/14 07:06:23;;;;;;;;;;;18.30;69.60;;;;;;4979492;28;19935;-78
2022/08/14 07:08:51;;;;;;;;;;;18.30;69.60;;;;;;4981454;28;19961;-79
2022/08/14 07:11:18;;;;;;;;;;;18.40;69.80;;;;;;4977745;28;20022;-78
2022/08/14 07:13:45;;;;;;;;;;;18.40;69.80;;;;;;4968785;28;19926;-78
2022/08/14 07:16:12;;;;;;;;;;;18.40;69.60;;;;;;4966028;28;20444;-80
2022/08/14 07:18:41;;;;;;;;;;;18.40;69.70;;;;;;4978702;28;19961;-78
2022/08/14 07:21:08;;;;;;;;;;;18.40;69.60;;;;;;4982210;28;19930;-78
2022/08/14 07:23:35;;;;;;;;;;;18.50;69.70;;;;;;4977284;28;20475;-78
2022/08/14 07:26:03;;;;;;;;;;;18.50;69.70;;;;;;4982171;28;19981;-80
2022/08/14 07:28:31;;;;;;;;;;;18.50;70.30;;;;;;4981756;28;19936;-78
2022/08/14 07:30:59;;;;;;;;;;;18.50;69.70;;;;;;4959483;28;19961;-80
2022/08/14 07:33:26;;;;;;;;;;;18.60;69.90;;;;;;4975962;28;19936;-79
2022/08/14 07:35:55;;;;;;;;;;;18.60;70.00;;;;;;4974119;28;19926;-79
2022/08/14 07:38:22;;;;;;;;;;;18.70;70.00;;;;;;4952161;28;20028;-78
2022/08/14 07:43:18;;;;;;;;;;;18.70;70.10;;;;;;4994843;28;19932;-78
2022/08/14 07:45:45;;;;;;;;;;;18.80;70.10;;;;;;4999872;28;19926;-78
2022/08/14 07:48:12;;;;;;;;;;;18.80;70.10;;;;;;4995971;28;19930;-78
2022/08/14 07:50:39;;;;;;;;;;;18.80;70.10;;;;;;4996057;28;20044;-78
2022/08/14 07:53:07;;;;;;;;;;;18.80;70.10;;;;;;4993581;28;19925;-78
2022/08/14 07:55:34;;;;;;;;;;;18.90;70.00;;;;;;4991835;28;19952;-76
2022/08/14 07:58:01;;;;;;;;;;;18.80;69.80;;;;;;4973883;28;20136;-78
2022/08/14 08:00:28;;;;;;;;;;;18.90;69.80;;;;;;4990896;28;19937;-78
2022/08/14 08:02:55;;;;;;;;;;;18.90;69.80;;;;;;4990242;28;19925;-77
2022/08/14 08:05:24;;;;;;;;;;;18.90;69.70;;;;;;4991798;28;20428;-77
2022/08/14 08:07:51;;;;;;;;;;;19.00;69.70;;;;;;4986285;28;19937;-77
2022/08/14 08:10:33;;;;;;;;;;;19.10;70.30;;;;;;4978368;28;19930;-77
2022/08/14 08:13:01;;;;;;;;;;;19.30;70.30;;;;;;4977338;28;20369;-77
2022/08/14 08:15:30;;;;;;;;;;;19.50;70.10;;;;;;4978900;28;19972;-76
2022/08/14 08:17:57;;;;;;;;;;;19.60;69.90;;;;;;4983037;28;20396;-75
2022/08/14 08:20:25;;;;;;;;;;;19.60;69.60;;;;;;4982745;28;19934;-76
2022/08/14 08:22:55;;;;;;;;;;;19.70;69.40;;;;;;4984797;28;19933;-75
2022/08/14 08:25:23;;;;;;;;;;;19.80;69.90;;;;;;4965855;28;19926;-76
2022/08/14 08:27:57;;;;;;;;;;;19.90;69.90;;;;;;4984315;28;19950;-75
2022/08/14 08:30:24;;;;;;;;;;;19.90;69.70;;;;;;4983600;28;20348;-76
2022/08/14 08:32:52;;;;;;;;;;;19.90;69.60;;;;;;4989989;28;19931;-75
2022/08/14 08:35:22;;;;;;;;;;;19.80;69.70;;;;;;4967995;28;20289;-77
2022/08/14 08:37:49;;;;;;;;;;;19.70;69.80;;;;;;4982637;28;20485;-76
2022/08/14 08:40:24;;;;;;;;;;;19.70;69.90;;;;;;4983879;28;19981;-76
2022/08/14 08:42:52;;;;;;;;;;;19.60;69.80;;;;;;4985727;28;19926;-76
2022/08/14 08:45:19;;;;;;;;;;;19.70;69.90;;;;;;4986341;28;20419;-75
2022/08/14 08:47:46;;;;;;;;;;;19.60;69.80;;;;;;4967406;28;20498;-75
2022/08/14 08:50:19;;;;;;;;;;;19.70;70.00;;;;;;4983290;28;19952;-76
2022/08/14 08:52:50;;;;;;;;;;;19.70;69.90;;;;;;4982846;28;19949;-75
2022/08/14 08:55:17;;;;;;;;;;;19.70;69.90;;;;;;4984540;28;19925;-75
2022/08/14 08:57:46;;;;;;;;;;;19.70;69.90;;;;;;4993176;28;19952;-77
2022/08/14 09:00:14;;;;;;;;;;;19.70;69.90;;;;;;4988047;28;19925;-76
2022/08/14 09:02:43;;;;;;;;;;;19.70;69.90;;;;;;4988546;28;19932;-76
2022/08/14 09:05:09;;;;;;;;;;;19.70;69.90;;;;;;4994196;28;19926;-76
2022/08/14 09:07:36;;;;;;;;;;;19.70;69.90;;;;;;4980363;28;19926;-77
2022/08/14 09:12:34;;;;;;;;;;;19.80;70.20;;;;;;4910357;28;19927;-84
2022/08/14 09:15:05;;;;;;;;;;;19.80;70.20;;;;;;4918671;28;20357;-84
2022/08/14 09:17:32;;;;;;;;;;;19.80;70.30;;;;;;4938127;28;20002;-84
2022/08/14 09:19:59;;;;;;;;;;;19.80;70.20;;;;;;4937340;28;19981;-84
2022/08/14 09:22:27;;;;;;;;;;;19.80;70.20;;;;;;4939551;28;19931;-84
2022/08/14 09:24:54;;;;;;;;;;;19.80;70.20;;;;;;4944460;28;19977;-85
2022/08/14 09:27:21;;;;;;;;;;;19.90;70.50;;;;;;4953281;28;20373;-86
2022/08/14 09:29:48;;;;;;;;;;;19.90;70.70;;;;;;4933347;28;20380;-85
2022/08/14 09:32:22;;;;;;;;;;;20.00;71.00;;;;;;4945518;28;20095;-86
2022/08/14 09:34:54;;;;;;;;;;;20.00;70.80;;;;;;4936711;28;19970;-84
2022/08/14 09:37:28;;;;;;;;;;;20.00;70.70;;;;;;4942782;28;19937;-84
2022/08/14 09:39:59;;;;;;;;;;;20.00;70.70;;;;;;4939818;28;20013;-85
2022/08/14 09:42:31;;;;;;;;;;;20.00;70.70;;;;;;4921503;28;19934;-85
2022/08/14 09:45:03;;;;;;;;;;;20.00;70.90;;;;;;4935165;28;19978;-81
2022/08/14 09:47:45;;;;;;;;;;;20.00;70.60;;;;;;4907025;28;20537;-84
2022/08/14 09:50:16;;;;;;;;;;;20.00;70.60;;;;;;4897058;28;19936;-85
2022/08/14 09:52:48;;;;;;;;;;;19.90;70.60;;;;;;4924342;28;19934;-82
2022/08/14 09:55:18;;;;;;;;;;;20.00;71.70;;;;;;4923999;28;20013;-84
2022/08/14 09:57:45;;;;;;;;;;;20.10;71.00;;;;;;4921337;28;19926;-84
2022/08/14 10:00:13;;;;;;;;;;;20.00;70.80;;;;;;4917900;28;19930;-84
2022/08/14 10:02:53;;;;;;;;;;;20.00;70.80;;;;;;4921192;28;19957;-84
2022/08/14 10:05:28;;;;;;;;;;;20.10;71.10;;;;;;4916541;28;19961;-82
2022/08/14 10:07:55;;;;;;;;;;;20.10;71.50;;;;;;4929016;28;19998;-83
2022/08/14 10:10:32;;;;;;;;;;;20.20;71.40;;;;;;4937371;28;19934;-84
2022/08/14 10:13:00;;;;;;;;;;;20.20;71.40;;;;;;4928915;28;20689;-83
2022/08/14 10:15:28;;;;;;;;;;;20.20;71.30;;;;;;4933704;28;20399;-83
2022/08/14 10:18:08;;;;;;;;;;;20.20;71.20;;;;;;4927857;28;20033;-85
2022/08/14 10:20:39;;;;;;;;;;;20.20;71.20;;;;;;4923604;28;20378;-82
2022/08/14 10:23:10;;;;;;;;;;;20.30;71.50;;;;;;4923814;28;19935;-82
2022/08/14 10:25:42;;;;;;;;;;;20.40;71.90;;;;;;4935505;28;20776;-88
2022/08/14 10:28:09;;;;;;;;;;;20.50;71.20;;;;;;4920156;28;19934;-84
2022/08/14 10:30:37;;;;;;;;;;;20.50;71.10;;;;;;4913782;28;19965;-83
2022/08/14 10:33:04;;;;;;;;;;;20.50;71.20;;;;;;4901746;28;20313;-83
2022/08/14 10:35:40;;;;;;;;;;;20.50;71.20;;;;;;4936959;28;21034;-82
2022/08/14 10:38:07;;;;;;;;;;;20.50;71.10;;;;;;4925146;28;19934;-85
2022/08/14 10:40:34;;;;;;;;;;;20.50;70.80;;;;;;4946731;28;19954;-85
2022/08/14 10:43:02;;;;;;;;;;;20.50;70.80;;;;;;4919078;28;20080;-84
2022/08/14 10:45:30;;;;;;;;;;;20.50;70.80;;;;;;4920415;28;19935;-85
2022/08/14 10:47:57;;;;;;;;;;;20.50;70.70;;;;;;4917849;28;19950;-80
2022/08/14 10:50:31;;;;;;;;;;;20.60;70.70;;;;;;4919301;28;20261;-84
2022/08/14 10:53:00;;;;;;;;;;;20.60;70.30;;;;;;4918751;28;19969;-84
2022/08/14 10:55:32;;;;;;;;;;;20.60;70.00;;;;;;4925562;28;20337;-84
2022/08/14 10:57:59;;;;;;;;;;;20.60;70.10;;;;;;4917750;28;20558;-83
2022/08/14 11:00:28;;;;;;;;;;;20.60;69.50;;;;;;4914389;28;20584;-83
2022/08/14 11:02:59;;;;;;;;;;;20.60;69.30;;;;;;4897996;28;20375;-81
2022/08/14 11:05:27;;;;;;;;;;;20.70;69.40;;;;;;4919898;28;20282;-81
2022/08/14 11:07:59;;;;;;;;;;;20.70;69.20;;;;;;4923737;28;20090;-83
2022/08/14 11:10:38;;;;;;;;;;;20.70;69.20;;;;;;4935272;28;20045;-81
2022/08/14 11:13:05;;;;;;;;;;;20.80;69.30;;;;;;4917139;28;19931;-81
2022/08/14 11:15:32;;;;;;;;;;;20.80;68.90;;;;;;4917321;28;19930;-81
2022/08/14 11:17:59;;;;;;;;;;;20.80;68.90;;;;;;4904373;28;20027;-81
2022/08/14 11:20:28;;;;;;;;;;;20.80;68.50;;;;;;4914498;28;19934;-80
2022/08/14 11:22:56;;;;;;;;;;;20.80;68.40;;;;;;4916688;28;19930;-80
2022/08/14 11:25:23;;;;;;;;;;;20.80;68.00;;;;;;4917322;28;19941;-81
2022/08/14 11:27:53;;;;;;;;;;;20.90;68.00;;;;;;4922402;28;21192;-84
2022/08/14 11:30:23;;;;;;;;;;;21.20;66.70;;;;;;4920039;28;19926;-81
2022/08/14 11:32:51;;;;;;;;;;;21.30;66.90;;;;;;4920582;28;20874;-80
2022/08/14 11:35:19;;;;;;;;;;;21.80;62.20;;;;;;4920770;28;20021;-79
2022/08/14 11:37:50;;;;;;;;;;;22.50;63.40;;;;;;4924333;28;19934;-79
2022/08/14 11:40:17;;;;;;;;;;;22.90;61.70;;;;;;4927227;28;20440;-80
2022/08/14 11:42:46;;;;;;;;;;;23.20;60.60;;;;;;4925738;28;19938;-81
2022/08/14 11:45:14;;;;;;;;;;;23.40;61.40;;;;;;4917986;28;20200;-78
2022/08/14 11:47:41;;;;;;;;;;;23.60;61.20;;;;;;4918310;28;20367;-77
2022/08/14 11:50:12;;;;;;;;;;;23.90;59.50;;;;;;4930378;28;21031;-85
2022/08/14 11:52:39;;;;;;;;;;;23.70;60.30;;;;;;4914372;28;19930;-82
2022/08/14 11:55:08;;;;;;;;;;;23.20;61.60;;;;;;4901364;28;20401;-87
2022/08/14 11:57:36;;;;;;;;;;;22.80;62.70;;;;;;4910160;28;20650;-87
2022/08/14 12:00:08;;;;;;;;;;;22.60;63.40;;;;;;4932773;28;19953;-85
2022/08/14 12:02:36;;;;;;;;;;;22.40;63.80;;;;;;4939665;28;19970;-85
2022/08/14 12:05:04;;;;;;;;;;;22.40;64.10;;;;;;4920013;28;19941;-85
2022/08/14 12:07:31;;;;;;;;;;;22.40;64.20;;;;;;4889416;28;20392;-85
2022/08/14 12:09:58;;;;;;;;;;;22.30;64.60;;;;;;4919572;28;19927;-86
2022/08/14 12:12:32;;;;;;;;;;;22.30;64.20;;;;;;4941172;28;19926;-86
2022/08/14 12:14:59;;;;;;;;;;;22.70;63.60;;;;;;4920891;28;19934;-83
2022/08/14 12:17:27;;;;;;;;;;;22.70;63.70;;;;;;4918934;28;19964;-84
2022/08/14 12:19:57;;;;;;;;;;;22.60;63.90;;;;;;4918406;28;20087;-83
2022/08/14 12:22:34;;;;;;;;;;;22.50;63.80;;;;;;4914895;28;20041;-81
2022/08/14 12:25:01;;;;;;;;;;;22.50;63.90;;;;;;4935351;28;19927;-80
2022/08/14 12:27:38;;;;;;;;;;;22.40;63.90;;;;;;4896701;28;20404;-79
2022/08/14 12:30:06;;;;;;;;;;;22.40;63.90;;;;;;4919249;28;19926;-83
2022/08/14 12:32:40;;;;;;;;;;;22.50;60.40;;;;;;4952554;28;20344;-78
2022/08/14 12:35:09;;;;;;;;;;;22.70;57.80;;;;;;4935058;28;20398;-82
2022/08/14 12:37:37;;;;;;;;;;;23.00;57.00;;;;;;4935226;28;21783;-80
2022/08/14 12:40:12;;;;;;;;;;;23.10;57.30;;;;;;4940730;28;19931;-79
2022/08/14 12:42:39;;;;;;;;;;;23.30;56.50;;;;;;4928417;28;19949;-82
2022/08/14 12:45:07;;;;;;;;;;;23.50;55.80;;;;;;4933721;28;19964;-78
2022/08/14 12:47:34;;;;;;;;;;;23.70;55.70;;;;;;4937822;28;19930;-83
2022/08/14 12:50:01;;;;;;;;;;;23.70;55.30;;;;;;4943995;28;19934;-84
2022/08/14 12:52:30;;;;;;;;;;;23.60;56.70;;;;;;4943651;28;19941;-84
2022/08/14 12:54:58;;;;;;;;;;;23.70;55.10;;;;;;4936814;28;19937;-83
2022/08/14 12:57:33;;;;;;;;;;;23.80;53.50;;;;;;4936690;28;19929;-83
2022/08/14 13:00:05;;;;;;;;;;;23.90;53.40;;;;;;4936435;28;19934;-83
2022/08/14 13:02:36;;;;;;;;;;;23.90;53.70;;;;;;4934792;28;19926;-84
2022/08/14 13:05:04;;;;;;;;;;;23.90;53.00;;;;;;4949013;28;20041;-85
2022/08/14 13:07:32;;;;;;;;;;;23.90;53.10;;;;;;4922126;28;21378;-84
2022/08/14 13:10:00;;;;;;;;;;;23.90;53.10;;;;;;4932430;28;19934;-81
2022/08/14 13:12:28;;;;;;;;;;;24.10;53.10;;;;;;4932455;28;20024;-83
2022/08/14 13:14:57;;;;;;;;;;;24.20;53.70;;;;;;4918960;28;20615;-83
2022/08/14 13:17:24;;;;;;;;;;;24.10;54.50;;;;;;4940027;28;20407;-83
2022/08/14 13:19:53;;;;;;;;;;;24.00;55.80;;;;;;4945095;28;20317;-80
2022/08/14 13:22:25;;;;;;;;;;;23.90;57.10;;;;;;4948914;28;21576;-80
2022/08/14 13:24:53;;;;;;;;;;;23.90;58.00;;;;;;4948327;28;20844;-81
2022/08/14 13:27:22;;;;;;;;;;;24.00;58.70;;;;;;4948313;28;19931;-80
2022/08/14 13:29:51;;;;;;;;;;;24.00;59.10;;;;;;4950359;28;19930;-81
2022/08/14 13:32:18;;;;;;;;;;;24.00;59.30;;;;;;4953034;28;19990;-80
2022/08/14 13:34:47;;;;;;;;;;;24.00;59.50;;;;;;4950163;28;19930;-83
2022/08/14 13:37:14;;;;;;;;;;;24.00;59.60;;;;;;4951188;28;19926;-83
2022/08/14 13:39:42;;;;;;;;;;;24.00;59.90;;;;;;4947168;28;19926;-82
2022/08/14 13:42:13;;;;;;;;;;;24.10;60.20;;;;;;4949838;28;20022;-82
2022/08/14 13:44:40;;;;;;;;;;;24.10;60.50;;;;;;4930236;28;19979;-82
2022/08/14 13:47:07;;;;;;;;;;;24.10;60.20;;;;;;4945210;28;20417;-80
2022/08/14 13:49:36;;;;;;;;;;;24.20;60.70;;;;;;4950079;28;19938;-80
2022/08/14 13:52:03;;;;;;;;;;;24.20;61.00;;;;;;4930966;28;19966;-81
2022/08/14 13:54:33;;;;;;;;;;;24.20;61.20;;;;;;4947391;28;19993;-81
2022/08/14 13:57:02;;;;;;;;;;;24.30;61.60;;;;;;4949478;28;19967;-81
2022/08/14 13:59:31;;;;;;;;;;;24.40;61.80;;;;;;4948514;28;19930;-80
2022/08/14 14:02:02;;;;;;;;;;;24.40;61.70;;;;;;4944556;28;20323;-81
2022/08/14 14:04:30;;;;;;;;;;;24.50;61.00;;;;;;4946657;28;19954;-80
2022/08/14 14:07:00;;;;;;;;;;;24.50;61.60;;;;;;4952440;28;20420;-80
2022/08/14 14:09:28;;;;;;;;;;;24.60;61.10;;;;;;4930722;28;19978;-80
2022/08/14 14:11:57;;;;;;;;;;;24.60;60.70;;;;;;4949346;28;19981;-80
2022/08/14 14:14:25;;;;;;;;;;;24.70;61.20;;;;;;4947385;28;20368;-80
2022/08/14 14:16:53;;;;;;;;;;;24.70;61.40;;;;;;4945434;28;19927;-80
2022/08/14 14:19:21;;;;;;;;;;;24.70;61.50;;;;;;4949111;28;20005;-80
2022/08/14 14:21:49;;;;;;;;;;;24.80;61.70;;;;;;4956374;28;19940;-82
2022/08/14 14:24:16;;;;;;;;;;;24.80;61.80;;;;;;4949553;28;20385;-80
2022/08/14 14:26:47;;;;;;;;;;;24.90;62.20;;;;;;4944969;28;19930;-80
2022/08/14 14:29:14;;;;;;;;;;;25.00;62.30;;;;;;4952485;28;19981;-80
2022/08/14 14:31:41;;;;;;;;;;;25.00;62.30;;;;;;4949655;28;20013;-80
2022/08/14 14:34:09;;;;;;;;;;;25.00;62.40;;;;;;4962958;28;19974;-79
2022/08/14 14:36:37;;;;;;;;;;;25.10;62.50;;;;;;4947474;28;19996;-80
2022/08/14 14:39:05;;;;;;;;;;;25.20;62.50;;;;;;4949935;28;20412;-79
2022/08/14 14:41:33;;;;;;;;;;;25.20;62.40;;;;;;4949530;28;19938;-80
2022/08/14 14:44:00;;;;;;;;;;;25.30;62.40;;;;;;4946196;28;19935;-80
2022/08/14 14:46:31;;;;;;;;;;;25.30;62.00;;;;;;4949794;28;19927;-80
2022/08/14 14:49:00;;;;;;;;;;;25.30;61.80;;;;;;4949991;28;20388;-80
2022/08/14 14:51:28;;;;;;;;;;;25.40;61.90;;;;;;4945702;28;19926;-80
2022/08/14 14:53:56;;;;;;;;;;;25.50;61.90;;;;;;4950584;28;19978;-80
2022/08/14 14:56:24;;;;;;;;;;;25.50;61.70;;;;;;4949892;28;19938;-80
2022/08/14 14:58:51;;;;;;;;;;;25.60;61.90;;;;;;4948008;28;19930;-80
2022/08/14 15:01:22;;;;;;;;;;;25.60;61.80;;;;;;4946221;28;19933;-80
2022/08/14 15:03:52;;;;;;;;;;;25.60;62.00;;;;;;4949113;28;20297;-80